Time;durP1;ratioP1;P1;durP2;ratioP2;P2;SDS_P1;SDS_P2;PMS_P1;PMS_P2;Temp;Humidity;BMP_temperature;BMP_pressure;BME280_temperature;BME280_humidity;BME280_pressure;Samples;Min_cycle;Max_cycle;Signal;HPM_P1;HPM_P2
2021/01/19 00:00:24;;;;;;;;;;;;;;;7.97;61.45;101155.81;5077910;27;98229;-80
2021/01/19 00:02:50;;;;;;;;;;;;;;;8.00;61.33;101153.16;5078208;27;96942;-80
2021/01/19 00:05:16;;;;;;;;;;;;;;;8.11;61.20;101158.19;5077937;27;96807;-80
2021/01/19 00:07:41;;;;;;;;;;;;;;;8.30;60.39;101152.59;5079915;27;101366;-79
2021/01/19 00:10:08;;;;;;;;;;;;;;;7.59;62.24;101156.50;5092032;27;96924;-80
2021/01/19 00:12:34;;;;;;;;;;;;;;;7.86;61.71;101156.03;5089061;27;96741;-81
2021/01/19 00:15:00;;;;;;;;;;;;;;;6.57;65.18;101159.75;5090404;27;96833;-81
2021/01/19 00:17:26;;;;;;;;;;;;;;;7.46;63.21;101155.84;5082151;27;101036;-81
2021/01/19 00:19:52;;;;;;;;;;;;;;;7.74;62.29;101152.75;5085075;27;98448;-81
2021/01/19 00:22:18;;;;;;;;;;;;;;;7.91;61.31;101141.03;5081741;27;96892;-81
2021/01/19 00:24:45;;;;;;;;;;;;;;;8.02;61.07;101140.81;5084663;27;96860;-81
2021/01/19 00:27:11;;;;;;;;;;;;;;;7.67;62.56;101145.84;5078855;27;100342;-81
2021/01/19 00:29:37;;;;;;;;;;;;;;;7.58;62.87;101139.84;5076485;27;98174;-81
2021/01/19 00:32:03;;;;;;;;;;;;;;;7.66;62.37;101141.50;5075979;27;96863;-81
2021/01/19 00:34:29;;;;;;;;;;;;;;;7.76;61.87;101133.41;5074214;27;96813;-80
2021/01/19 00:36:55;;;;;;;;;;;;;;;7.82;61.85;101146.44;5074538;27;97752;-81
2021/01/19 00:39:21;;;;;;;;;;;;;;;8.02;61.16;101140.81;5070251;27;99693;-80
2021/01/19 00:41:47;;;;;;;;;;;;;;;7.87;60.99;101138.47;5069407;27;96780;-80
2021/01/19 00:44:14;;;;;;;;;;;;;;;8.12;60.54;101134.50;5069572;27;98041;-80
2021/01/19 00:46:39;;;;;;;;;;;;;;;8.14;60.27;101145.00;5063459;27;101284;-81
2021/01/19 00:49:05;;;;;;;;;;;;;;;8.14;60.26;101142.38;5071444;27;98088;-81
2021/01/19 00:51:34;;;;;;;;;;;;;;;8.21;60.32;101147.47;5062766;27;97630;-80
2021/01/19 00:54:00;;;;;;;;;;;;;;;8.08;60.19;101145.97;5072529;27;97266;-80
2021/01/19 00:56:34;;;;;;;;;;;;;;;7.97;60.81;101143.53;5069616;27;97834;-80
2021/01/19 00:59:00;;;;;;;;;;;;;;;8.15;60.07;101141.44;5070050;27;98279;-80
2021/01/19 01:01:26;;;;;;;;;;;;;;;8.08;60.46;101147.72;5074911;27;96989;-81
2021/01/19 01:03:52;;;;;;;;;;;;;;;8.16;60.11;101143.19;5070814;27;96883;-80
2021/01/19 01:06:18;;;;;;;;;;;;;;;7.95;60.90;101139.19;5061527;27;101928;-80
2021/01/19 01:08:44;;;;;;;;;;;;;;;7.92;61.03;101139.25;5061271;27;98040;-79
2021/01/19 01:11:10;;;;;;;;;;;;;;;7.24;62.91;101138.66;5085417;27;96716;-80
2021/01/19 01:13:35;;;;;;;;;;;;;;;7.46;62.38;101139.19;5064172;27;96889;-80
2021/01/19 01:16:01;;;;;;;;;;;;;;;8.01;60.81;101139.94;5072723;27;98145;-80
2021/01/19 01:18:30;;;;;;;;;;;;;;;8.18;60.39;101137.00;5065731;27;99296;-80
2021/01/19 01:20:56;;;;;;;;;;;;;;;7.88;60.55;101132.31;5072715;27;96954;-80
2021/01/19 01:23:21;;;;;;;;;;;;;;;8.12;60.63;101136.25;5074775;27;96855;-80
2021/01/19 01:25:47;;;;;;;;;;;;;;;7.87;61.41;101128.81;5067329;27;98292;-79
2021/01/19 01:28:13;;;;;;;;;;;;;;;7.82;61.48;101124.53;5071941;27;98011;-80
2021/01/19 01:30:39;;;;;;;;;;;;;;;8.06;60.78;101120.59;5077763;27;96911;-79
2021/01/19 01:33:05;;;;;;;;;;;;;;;7.75;61.89;101121.13;5077504;27;96836;-80
2021/01/19 01:35:31;;;;;;;;;;;;;;;7.92;61.24;101118.22;5076154;27;99117;-80
2021/01/19 01:37:57;;;;;;;;;;;;;;;7.56;62.17;101128.47;5076865;27;99101;-80
2021/01/19 01:40:24;;;;;;;;;;;;;;;7.94;61.11;101124.31;5067515;27;98757;-81
2021/01/19 01:42:51;;;;;;;;;;;;;;;7.55;62.40;101132.00;5075510;27;97403;-81
2021/01/19 01:45:19;;;;;;;;;;;;;;;7.99;60.88;101128.59;5076942;27;101078;-81
2021/01/19 01:47:45;;;;;;;;;;;;;;;7.83;60.87;101118.38;5068376;27;100030;-81
2021/01/19 01:50:11;;;;;;;;;;;;;;;8.05;60.60;101124.97;5073188;27;97266;-80
2021/01/19 01:52:39;;;;;;;;;;;;;;;8.24;60.16;101115.81;5075655;27;96865;-81
2021/01/19 01:55:05;;;;;;;;;;;;;;;8.27;59.77;101113.09;5069891;27;101611;-80
2021/01/19 01:57:32;;;;;;;;;;;;;;;7.78;60.88;101109.69;5073175;27;99549;-81
2021/01/19 01:59:59;;;;;;;;;;;;;;;7.73;61.19;101108.91;5074928;27;96803;-81
2021/01/19 02:02:25;;;;;;;;;;;;;;;7.78;61.09;101093.91;5074762;27;96778;-82
2021/01/19 02:04:51;;;;;;;;;;;;;;;7.91;60.79;101106.81;5064147;27;100511;-81
2021/01/19 02:07:20;;;;;;;;;;;;;;;7.81;61.18;101096.50;5067089;27;99425;-80
2021/01/19 02:09:50;;;;;;;;;;;;;;;8.06;60.38;101094.25;5069117;27;97233;-80
2021/01/19 02:12:20;;;;;;;;;;;;;;;8.13;59.94;101096.75;5073040;27;96834;-80
2021/01/19 02:14:49;;;;;;;;;;;;;;;8.08;60.04;101093.31;5073873;27;100153;-80
2021/01/19 02:17:21;;;;;;;;;;;;;;;7.93;60.06;101085.75;5072942;27;99924;-80
2021/01/19 02:20:05;;;;;;;;;;;;;;;7.89;60.78;101097.19;5072346;27;96872;-80
2021/01/19 02:22:42;;;;;;;;;;;;;;;8.14;59.81;101097.63;5072785;27;97477;-81
2021/01/19 02:25:13;;;;;;;;;;;;;;;8.11;59.71;101093.28;5072630;27;101669;-81
2021/01/19 02:27:51;;;;;;;;;;;;;;;8.37;58.90;101096.28;5057648;27;101276;-80
2021/01/19 02:30:22;;;;;;;;;;;;;;;7.82;60.75;101104.34;5066258;27;96947;-81
2021/01/19 02:32:56;;;;;;;;;;;;;;;8.13;59.50;101095.88;5074219;27;96820;-81
2021/01/19 02:35:23;;;;;;;;;;;;;;;8.02;60.03;101102.22;5071127;27;99878;-80
2021/01/19 02:37:54;;;;;;;;;;;;;;;7.79;60.64;101098.28;5073664;27;98342;-81
2021/01/19 02:40:21;;;;;;;;;;;;;;;8.09;59.48;101095.06;5071557;27;96730;-81
2021/01/19 02:42:52;;;;;;;;;;;;;;;7.75;60.70;101091.31;5059202;27;96892;-81
2021/01/19 02:45:19;;;;;;;;;;;;;;;7.75;60.32;101078.16;5073672;27;99872;-81
2021/01/19 02:47:45;;;;;;;;;;;;;;;7.84;60.81;101080.66;5079367;27;98866;-80
2021/01/19 02:50:12;;;;;;;;;;;;;;;7.91;60.29;101084.91;5064231;27;96697;-80
2021/01/19 02:52:39;;;;;;;;;;;;;;;7.86;60.26;101082.38;5082898;27;96743;-81
2021/01/19 02:55:05;;;;;;;;;;;;;;;8.14;59.49;101085.28;5072480;27;98898;-80
2021/01/19 02:57:41;;;;;;;;;;;;;;;8.04;59.88;101090.78;5071731;27;97587;-80
2021/01/19 03:00:11;;;;;;;;;;;;;;;7.82;60.08;101088.56;5073892;27;96915;-80
2021/01/19 03:02:38;;;;;;;;;;;;;;;7.91;60.25;101085.75;5074751;27;96729;-81
2021/01/19 03:05:06;;;;;;;;;;;;;;;7.93;60.01;101085.75;5072486;27;101161;-81
2021/01/19 03:07:35;;;;;;;;;;;;;;;8.24;59.16;101078.09;5089737;27;101677;-81
2021/01/19 03:10:02;;;;;;;;;;;;;;;7.99;59.75;101075.09;5093689;27;96648;-80
2021/01/19 03:12:28;;;;;;;;;;;;;;;7.86;60.50;101076.22;5068828;27;96828;-80
2021/01/19 03:14:54;;;;;;;;;;;;;;;8.10;59.23;101070.47;5069279;27;99952;-80
2021/01/19 03:17:20;;;;;;;;;;;;;;;8.26;58.86;101082.44;5088828;27;97884;-80
2021/01/19 03:19:48;;;;;;;;;;;;;;;8.11;59.51;101077.47;5081875;27;96872;-80
2021/01/19 03:22:13;;;;;;;;;;;;;;;8.09;59.43;101078.41;5070404;27;96752;-80
2021/01/19 03:24:40;;;;;;;;;;;;;;;8.23;59.11;101081.63;5068202;27;98674;-80
2021/01/19 03:27:06;;;;;;;;;;;;;;;8.20;59.20;101069.41;5077435;27;99469;-81
2021/01/19 03:29:32;;;;;;;;;;;;;;;8.02;60.12;101072.38;5074693;27;97328;-81
2021/01/19 03:31:58;;;;;;;;;;;;;;;8.23;59.11;101064.06;5074841;27;96836;-81
2021/01/19 03:34:24;;;;;;;;;;;;;;;8.14;59.57;101066.03;5073643;27;98818;-81
2021/01/19 03:36:50;;;;;;;;;;;;;;;8.19;59.26;101070.31;5072038;27;101393;-81
2021/01/19 03:39:16;;;;;;;;;;;;;;;8.24;59.02;101063.16;5071063;27;97355;-81
2021/01/19 03:41:42;;;;;;;;;;;;;;;8.33;58.82;101065.66;5074558;27;97317;-80
2021/01/19 03:44:08;;;;;;;;;;;;;;;8.29;58.93;101056.03;5073522;27;98446;-81
2021/01/19 03:46:34;;;;;;;;;;;;;;;8.29;58.87;101065.69;5076931;27;97815;-79
2021/01/19 03:49:00;;;;;;;;;;;;;;;8.53;58.04;101059.09;5066094;27;96858;-79
2021/01/19 03:51:31;;;;;;;;;;;;;;;8.40;58.27;101061.13;5075576;27;96989;-80
2021/01/19 03:53:57;;;;;;;;;;;;;;;8.36;58.72;101060.31;5073103;27;99085;-79
2021/01/19 03:56:23;;;;;;;;;;;;;;;8.38;58.72;101065.53;5065549;27;103150;-79
2021/01/19 03:58:50;;;;;;;;;;;;;;;8.31;58.56;101056.03;5073439;27;96821;-79
2021/01/19 04:01:15;;;;;;;;;;;;;;;8.13;58.89;101053.75;5075830;27;96978;-79
2021/01/19 04:03:41;;;;;;;;;;;;;;;8.25;59.29;101054.38;5074257;27;97905;-79
2021/01/19 04:06:08;;;;;;;;;;;;;;;8.28;58.86;101043.75;5076481;27;99124;-79
2021/01/19 04:08:34;;;;;;;;;;;;;;;8.05;59.41;101039.88;5074044;27;96922;-80
2021/01/19 04:11:00;;;;;;;;;;;;;;;8.12;59.23;101047.63;5074762;27;96960;-79
2021/01/19 04:13:26;;;;;;;;;;;;;;;8.15;58.66;101044.06;5062947;27;99373;-79
2021/01/19 04:15:53;;;;;;;;;;;;;;;8.11;58.97;101034.50;5069161;27;99515;-80
2021/01/19 04:18:19;;;;;;;;;;;;;;;8.26;58.86;101029.78;5073525;27;96975;-79
2021/01/19 04:20:45;;;;;;;;;;;;;;;8.32;58.64;101039.34;5075780;27;96858;-79
2021/01/19 04:23:14;;;;;;;;;;;;;;;8.13;59.02;101032.72;5073681;27;98952;-80
2021/01/19 04:25:39;;;;;;;;;;;;;;;8.20;58.76;101039.56;5066051;27;102091;-80
2021/01/19 04:28:05;;;;;;;;;;;;;;;7.95;59.42;101036.56;5064217;27;96810;-81
2021/01/19 04:30:31;;;;;;;;;;;;;;;7.81;59.82;101034.19;5079751;27;96773;-79
2021/01/19 04:32:58;;;;;;;;;;;;;;;8.27;58.60;101033.28;5081948;27;100406;-80
2021/01/19 04:35:24;;;;;;;;;;;;;;;8.39;58.45;101033.91;5082238;27;101856;-80
2021/01/19 04:37:50;;;;;;;;;;;;;;;8.33;58.04;101020.91;5072337;27;96767;-80
2021/01/19 04:40:16;;;;;;;;;;;;;;;8.30;58.37;101025.31;5078653;27;96811;-80
2021/01/19 04:42:42;;;;;;;;;;;;;;;8.53;57.62;101022.22;5087659;27;100369;-79
2021/01/19 04:45:09;;;;;;;;;;;;;;;8.38;58.10;101026.91;5089486;27;100920;-81
2021/01/19 04:47:35;;;;;;;;;;;;;;;8.18;58.22;101021.19;5076930;27;96662;-80
2021/01/19 04:50:04;;;;;;;;;;;;;;;8.03;58.55;101026.75;5073080;27;97257;-80
2021/01/19 04:52:32;;;;;;;;;;;;;;;8.11;58.36;101016.94;5078466;27;100246;-80
2021/01/19 04:55:02;;;;;;;;;;;;;;;8.31;57.88;101017.41;5079534;27;99448;-80
2021/01/19 04:57:30;;;;;;;;;;;;;;;8.45;57.64;101018.88;5064301;27;96824;-80
2021/01/19 04:59:59;;;;;;;;;;;;;;;8.39;57.73;101018.13;5075664;27;97336;-81
2021/01/19 05:02:35;;;;;;;;;;;;;;;8.36;57.79;101020.81;5074803;27;99376;-80
2021/01/19 05:05:23;;;;;;;;;;;;;;;8.31;58.11;101025.31;5073190;27;98184;-82
2021/01/19 05:08:04;;;;;;;;;;;;;;;8.31;58.07;101014.78;5072587;27;97150;-80
2021/01/19 05:10:34;;;;;;;;;;;;;;;8.39;57.93;101026.03;5070894;27;96937;-80
2021/01/19 05:13:06;;;;;;;;;;;;;;;8.22;58.35;101025.47;5070909;27;98957;-81
2021/01/19 05:15:34;;;;;;;;;;;;;;;8.27;58.16;101017.50;5066439;27;97759;-81
2021/01/19 05:18:01;;;;;;;;;;;;;;;8.38;57.64;101002.34;5072830;27;97019;-81
2021/01/19 05:20:30;;;;;;;;;;;;;;;8.01;59.00;101002.22;5076228;27;96881;-81
2021/01/19 05:22:57;;;;;;;;;;;;;;;8.00;58.81;100995.25;5073401;27;99362;-80
2021/01/19 05:25:23;;;;;;;;;;;;;;;8.05;58.70;100993.38;5057730;27;100024;-82
2021/01/19 05:27:49;;;;;;;;;;;;;;;7.92;58.91;100982.25;5071703;27;96846;-80
2021/01/19 05:30:15;;;;;;;;;;;;;;;7.84;59.00;100975.41;5075841;27;96912;-80
2021/01/19 05:32:42;;;;;;;;;;;;;;;7.97;58.70;100961.09;5078744;27;96794;-80
2021/01/19 05:35:14;;;;;;;;;;;;;;;7.92;58.55;100955.06;5073830;27;100822;-80
2021/01/19 05:37:42;;;;;;;;;;;;;;;8.20;58.00;100956.22;5057248;27;96740;-79
2021/01/19 05:40:09;;;;;;;;;;;;;;;7.92;58.30;100957.69;5062411;27;96897;-79
2021/01/19 05:42:35;;;;;;;;;;;;;;;7.73;58.88;100958.97;5072060;27;101119;-79
2021/01/19 05:45:05;;;;;;;;;;;;;;;7.84;58.52;100960.50;5083630;27;99542;-79
2021/01/19 05:47:32;;;;;;;;;;;;;;;7.91;58.46;100959.47;5066659;27;97006;-80
2021/01/19 05:50:00;;;;;;;;;;;;;;;8.05;58.34;100964.44;5072982;27;96840;-79
2021/01/19 05:52:30;;;;;;;;;;;;;;;7.78;58.66;100955.34;5075121;27;97124;-81
2021/01/19 05:54:58;;;;;;;;;;;;;;;7.52;59.65;100955.88;5094760;27;96644;-79
2021/01/19 05:57:24;;;;;;;;;;;;;;;7.81;58.69;100957.06;5094401;27;96581;-80
2021/01/19 05:59:53;;;;;;;;;;;;;;;7.85;58.42;100958.72;5080029;27;96687;-79
2021/01/19 06:02:19;;;;;;;;;;;;;;;8.13;57.95;100957.25;5085377;27;99858;-81
2021/01/19 06:04:47;;;;;;;;;;;;;;;7.93;58.10;100951.53;5093716;27;96838;-80
2021/01/19 06:07:14;;;;;;;;;;;;;;;7.77;58.41;100936.97;5092825;27;96535;-80
2021/01/19 06:09:41;;;;;;;;;;;;;;;7.86;58.53;100942.06;5093787;27;96601;-80
2021/01/19 06:12:08;;;;;;;;;;;;;;;7.70;59.03;100945.88;5080446;27;97772;-80
2021/01/19 06:14:34;;;;;;;;;;;;;;;7.96;58.11;100933.91;5080173;27;98110;-80
2021/01/19 06:17:07;;;;;;;;;;;;;;;8.05;57.90;100934.63;5085410;27;96814;-80
2021/01/19 06:19:33;;;;;;;;;;;;;;;7.98;57.74;100931.25;5074150;27;96757;-80
2021/01/19 06:22:04;;;;;;;;;;;;;;;7.77;58.14;100929.06;5083310;27;99502;-79
2021/01/19 06:24:31;;;;;;;;;;;;;;;7.92;58.15;100921.72;5084957;27;100161;-80
2021/01/19 06:26:56;;;;;;;;;;;;;;;8.10;57.51;100928.34;5074884;27;97869;-80
2021/01/19 06:29:24;;;;;;;;;;;;;;;7.99;57.98;100914.56;5080933;27;96946;-80
2021/01/19 06:31:50;;;;;;;;;;;;;;;8.10;57.80;100912.56;5082590;27;98230;-80
2021/01/19 06:34:23;;;;;;;;;;;;;;;7.73;58.36;100909.00;5077332;27;98943;-80
2021/01/19 06:36:49;;;;;;;;;;;;;;;7.97;57.95;100904.06;5078924;27;98840;-80
2021/01/19 06:39:22;;;;;;;;;;;;;;;8.01;57.73;100905.72;5078970;27;97899;-80
2021/01/19 06:41:50;;;;;;;;;;;;;;;8.10;57.39;100891.50;5071776;27;101450;-80
2021/01/19 06:44:19;;;;;;;;;;;;;;;8.37;56.66;100890.88;5081300;27;98381;-80
2021/01/19 06:46:49;;;;;;;;;;;;;;;7.79;57.78;100883.44;5065821;27;97150;-80
2021/01/19 06:49:15;;;;;;;;;;;;;;;7.63;58.38;100882.03;5077328;27;96784;-79
2021/01/19 06:51:48;;;;;;;;;;;;;;;8.04;57.53;100875.84;5077195;27;102744;-80
2021/01/19 06:54:16;;;;;;;;;;;;;;;7.94;57.62;100869.09;5069020;27;98177;-82
2021/01/19 06:56:49;;;;;;;;;;;;;;;8.07;57.09;100869.66;5055640;27;96811;-80
2021/01/19 06:59:22;;;;;;;;;;;;;;;7.84;57.71;100868.41;5060125;27;97106;-80
2021/01/19 07:01:56;;;;;;;;;;;;;;;7.72;58.13;100862.56;5075637;27;98073;-82
2021/01/19 07:04:23;;;;;;;;;;;;;;;7.82;57.96;100864.94;5076640;27;97937;-80
2021/01/19 07:07:04;;;;;;;;;;;;;;;7.73;57.85;100865.16;5073861;27;97176;-81
2021/01/19 07:10:00;;;;;;;;;;;;;;;7.75;57.98;100854.59;5073014;27;97074;-82
2021/01/19 07:12:44;;;;;;;;;;;;;;;7.86;57.63;100842.94;4990812;28;97812;-81
2021/01/19 07:15:11;;;;;;;;;;;;;;;8.00;57.09;100842.63;5050462;27;101558;-80
2021/01/19 07:18:02;;;;;;;;;;;;;;;7.92;57.45;100849.81;5073339;27;96897;-81
2021/01/19 07:20:30;;;;;;;;;;;;;;;7.84;57.44;100835.97;5074493;27;97528;-81
2021/01/19 07:23:00;;;;;;;;;;;;;;;7.70;58.05;100843.31;5072881;27;99417;-81
2021/01/19 07:25:26;;;;;;;;;;;;;;;7.90;57.74;100844.59;5071480;27;101064;-81
2021/01/19 07:27:53;;;;;;;;;;;;;;;7.85;57.64;100837.72;5073776;27;97132;-81
2021/01/19 07:30:20;;;;;;;;;;;;;;;7.90;57.76;100833.19;5076597;27;97387;-81
2021/01/19 07:32:47;;;;;;;;;;;;;;;7.79;57.78;100828.19;5073279;27;101404;-81
2021/01/19 07:35:15;;;;;;;;;;;;;;;7.93;57.09;100822.63;5058985;27;100993;-81
2021/01/19 07:37:41;;;;;;;;;;;;;;;7.71;57.79;100818.75;5073420;27;96947;-81
2021/01/19 07:40:17;;;;;;;;;;;;;;;7.69;57.89;100817.91;5075160;27;97151;-80
2021/01/19 07:42:43;;;;;;;;;;;;;;;7.57;58.30;100813.78;5073319;27;97280;-81
2021/01/19 07:45:11;;;;;;;;;;;;;;;7.79;57.86;100806.28;5074353;27;100791;-82
2021/01/19 07:47:38;;;;;;;;;;;;;;;7.71;58.06;100813.47;5055708;27;96958;-82
2021/01/19 07:50:05;;;;;;;;;;;;;;;7.86;57.35;100810.50;5067949;27;98931;-80
2021/01/19 07:52:37;;;;;;;;;;;;;;;7.91;57.01;100814.75;5074479;27;99020;-81
2021/01/19 07:55:19;;;;;;;;;;;;;;;7.52;58.35;100811.25;5070346;27;98205;-82
2021/01/19 07:57:46;;;;;;;;;;;;;;;7.38;59.10;100802.81;5071227;27;97505;-81
2021/01/19 08:00:13;;;;;;;;;;;;;;;7.81;58.15;100794.81;5074576;27;97134;-80
2021/01/19 08:02:39;;;;;;;;;;;;;;;7.76;57.96;100791.41;5073774;27;98163;-81
2021/01/19 08:05:06;;;;;;;;;;;;;;;7.89;57.51;100790.22;5080427;27;99445;-81
2021/01/19 08:07:39;;;;;;;;;;;;;;;7.72;57.81;100788.91;5084016;27;96937;-81
2021/01/19 08:10:17;;;;;;;;;;;;;;;7.76;57.94;100780.91;5081262;27;98726;-79
2021/01/19 08:12:46;;;;;;;;;;;;;;;8.12;56.77;100789.69;5083936;27;99757;-82
2021/01/19 08:15:17;;;;;;;;;;;;;;;8.02;57.43;100793.44;5086402;27;100074;-84
2021/01/19 08:17:53;;;;;;;;;;;;;;;8.28;56.77;100785.75;5083521;27;98074;-82
2021/01/19 08:20:23;;;;;;;;;;;;;;;8.12;56.74;100784.44;5083043;27;96770;-82
2021/01/19 08:22:50;;;;;;;;;;;;;;;8.13;56.67;100778.25;5088861;27;98252;-81
2021/01/19 08:25:22;;;;;;;;;;;;;;;8.11;57.26;100781.81;5077660;27;98260;-81
2021/01/19 08:27:48;;;;;;;;;;;;;;;7.98;56.90;100771.59;5090004;27;97195;-82
2021/01/19 08:30:17;;;;;;;;;;;;;;;8.27;56.63;100770.84;5088742;27;97270;-81
2021/01/19 08:32:43;;;;;;;;;;;;;;;8.36;56.61;100773.31;5081636;27;98990;-81
2021/01/19 08:35:10;;;;;;;;;;;;;;;8.38;56.02;100766.22;5085740;27;101461;-82
2021/01/19 08:37:37;;;;;;;;;;;;;;;7.81;57.72;100759.78;5089219;27;96917;-82
2021/01/19 08:40:05;;;;;;;;;;;;;;;8.21;56.87;100763.13;5087678;27;96941;-82
2021/01/19 08:42:32;;;;;;;;;;;;;;;8.06;57.04;100753.00;5086350;27;100837;-81
2021/01/19 08:44:58;;;;;;;;;;;;;;;8.42;55.90;100755.59;5087751;27;100984;-81
2021/01/19 08:47:25;;;;;;;;;;;;;;;8.39;55.82;100744.28;5087518;27;96730;-82
2021/01/19 08:49:51;;;;;;;;;;;;;;;8.02;57.73;100741.66;5087403;27;96848;-82
2021/01/19 08:52:26;;;;;;;;;;;;;;;8.26;56.73;100744.59;5087847;27;117498;-81
2021/01/19 08:54:52;;;;;;;;;;;;;;;8.36;56.44;100736.44;5087309;27;100189;-82
2021/01/19 08:57:21;;;;;;;;;;;;;;;8.01;57.48;100734.66;5088274;27;98289;-82
2021/01/19 09:00:04;;;;;;;;;;;;;;;8.15;56.60;100730.81;5087047;27;96901;-82
2021/01/19 09:02:30;;;;;;;;;;;;;;;8.06;56.70;100713.53;5086590;27;98332;-82
2021/01/19 09:04:56;;;;;;;;;;;;;;;8.24;56.71;100715.66;5084061;27;101308;-82
2021/01/19 09:07:28;;;;;;;;;;;;;;;8.54;55.82;100710.50;5088754;27;97927;-83
2021/01/19 09:09:55;;;;;;;;;;;;;;;8.78;55.66;100708.06;5085426;27;98144;-82
2021/01/19 09:12:22;;;;;;;;;;;;;;;8.36;55.96;100712.75;5086850;27;97461;-81
2021/01/19 09:14:49;;;;;;;;;;;;;;;8.52;55.24;100700.03;5087319;27;98862;-82
2021/01/19 09:17:25;;;;;;;;;;;;;;;8.69;55.33;100694.28;5078975;27;96848;-85
2021/01/19 09:20:04;;;;;;;;;;;;;;;8.54;55.58;100686.78;5075127;27;97294;-83
2021/01/19 09:22:30;;;;;;;;;;;;;;;8.49;55.61;100689.56;5068121;27;98570;-81
2021/01/19 09:24:57;;;;;;;;;;;;;;;8.72;55.44;100678.41;5068308;27;103817;-82
2021/01/19 09:27:32;;;;;;;;;;;;;;;8.45;55.61;100676.53;5077664;27;98801;-81
2021/01/19 09:30:06;;;;;;;;;;;;;;;8.56;55.63;100675.31;5077107;27;98169;-81
2021/01/19 09:32:40;;;;;;;;;;;;;;;8.65;55.20;100669.81;5086208;22;99722;-81
2021/01/19 09:35:10;;;;;;;;;;;;;;;8.93;54.73;100658.44;5058423;27;98560;-82
2021/01/19 09:37:36;;;;;;;;;;;;;;;8.50;55.86;100664.09;5060925;27;96770;-83
2021/01/19 09:40:03;;;;;;;;;;;;;;;8.35;56.04;100653.09;5059558;27;96996;-82
2021/01/19 09:42:30;;;;;;;;;;;;;;;8.26;56.43;100650.69;5059242;27;97909;-81
2021/01/19 09:44:56;;;;;;;;;;;;;;;8.39;55.44;100643.34;5051367;27;96902;-81
2021/01/19 09:47:23;;;;;;;;;;;;;;;8.48;55.30;100642.19;5046600;27;97247;-81
2021/01/19 09:49:52;;;;;;;;;;;;;;;8.63;55.51;100640.00;5045543;27;98144;-80
2021/01/19 09:52:18;;;;;;;;;;;;;;;8.55;55.41;100633.22;5048994;27;100822;-82
2021/01/19 09:54:44;;;;;;;;;;;;;;;8.45;55.20;100626.50;5051641;27;98252;-80
2021/01/19 09:57:34;;;;;;;;;;;;;;;8.13;56.44;100615.09;5043951;27;98922;-82
2021/01/19 10:00:01;;;;;;;;;;;;;;;8.58;55.90;100609.44;5038845;27;97963;-81
2021/01/19 10:02:28;;;;;;;;;;;;;;;8.71;55.48;100595.00;5039584;27;101138;-81
2021/01/19 10:04:57;;;;;;;;;;;;;;;8.48;56.11;100592.16;5042567;27;98846;-81
2021/01/19 10:07:27;;;;;;;;;;;;;;;8.19;56.59;100585.09;5039027;27;99289;-79
2021/01/19 10:09:52;;;;;;;;;;;;;;;8.37;56.13;100581.97;5041228;27;98139;-81
2021/01/19 10:12:19;;;;;;;;;;;;;;;8.54;55.69;100574.41;5043211;27;101321;-80
2021/01/19 10:14:44;;;;;;;;;;;;;;;8.26;56.46;100565.59;5044649;27;98082;-82
2021/01/19 10:17:12;;;;;;;;;;;;;;;8.48;56.17;100552.66;5046680;27;96920;-82
2021/01/19 10:19:38;;;;;;;;;;;;;;;8.33;55.69;100541.72;5047012;27;97374;-83
2021/01/19 10:22:06;;;;;;;;;;;;;;;8.38;55.99;100531.91;5057127;27;99318;-84
2021/01/19 10:24:32;;;;;;;;;;;;;;;8.31;55.96;100521.59;5055052;27;97732;-82
2021/01/19 10:26:59;;;;;;;;;;;;;;;8.74;55.22;100513.22;5051640;27;96860;-82
2021/01/19 10:29:25;;;;;;;;;;;;;;;8.84;54.29;100511.19;5048762;27;98686;-81
2021/01/19 10:31:54;;;;;;;;;;;;;;;8.75;54.98;100493.88;5048589;27;96747;-81
2021/01/19 10:34:22;;;;;;;;;;;;;;;8.29;55.62;100491.78;5041171;27;98657;-81
2021/01/19 10:36:51;;;;;;;;;;;;;;;8.62;55.51;100479.38;5041926;27;97540;-82
2021/01/19 10:39:17;;;;;;;;;;;;;;;7.89;56.69;100471.03;5043005;27;98025;-81
2021/01/19 10:41:43;;;;;;;;;;;;;;;8.05;56.27;100466.19;5043727;27;101277;-82
2021/01/19 10:44:10;;;;;;;;;;;;;;;8.08;56.41;100451.16;5044907;27;98714;-81
2021/01/19 10:46:36;;;;;;;;;;;;;;;8.30;55.76;100452.28;5059328;27;96828;-80
2021/01/19 10:49:03;;;;;;;;;;;;;;;8.50;55.17;100448.16;5063371;27;96763;-80
2021/01/19 10:51:31;;;;;;;;;;;;;;;8.27;55.76;100449.69;5064997;27;102151;-80
2021/01/19 10:54:07;;;;;;;;;;;;;;;8.60;55.14;100439.06;5046539;27;99234;-80
2021/01/19 10:56:33;;;;;;;;;;;;;;;8.14;55.96;100440.44;5039543;27;97550;-81
2021/01/19 10:58:59;;;;;;;;;;;;;;;7.97;56.11;100445.38;5044113;27;97106;-81
2021/01/19 11:01:25;;;;;;;;;;;;;;;8.07;56.31;100428.41;5041392;27;98870;-81
2021/01/19 11:03:51;;;;;;;;;;;;;;;8.08;56.26;100423.97;5041363;27;100743;-83
2021/01/19 11:06:17;;;;;;;;;;;;;;;7.74;57.64;100430.28;5044313;27;98712;-83
2021/01/19 11:08:45;;;;;;;;;;;;;;;7.85;57.57;100422.91;5044511;27;97052;-82
2021/01/19 11:11:11;;;;;;;;;;;;;;;8.13;56.90;100419.47;5044190;27;101805;-82
2021/01/19 11:13:37;;;;;;;;;;;;;;;7.82;57.27;100417.72;5046189;27;99081;-82
2021/01/19 11:16:03;;;;;;;;;;;;;;;7.48;59.00;100422.25;5052213;27;97502;-82
2021/01/19 11:18:31;;;;;;;;;;;;;;;7.73;57.84;100411.91;5048855;27;97286;-81
2021/01/19 11:20:56;;;;;;;;;;;;;;;7.92;57.77;100406.03;5043220;27;100942;-82
2021/01/19 11:23:22;;;;;;;;;;;;;;;7.38;59.10;100405.88;5047330;27;101461;-82
2021/01/19 11:25:49;;;;;;;;;;;;;;;7.32;59.86;100403.41;5044582;27;99051;-81
2021/01/19 11:28:15;;;;;;;;;;;;;;;7.50;59.17;100389.75;5045983;27;97635;-81
2021/01/19 11:30:41;;;;;;;;;;;;;;;7.50;59.18;100389.75;5043253;27;99959;-81
2021/01/19 11:33:07;;;;;;;;;;;;;;;7.24;59.36;100392.25;5041779;27;101398;-81
2021/01/19 11:35:35;;;;;;;;;;;;;;;6.35;62.34;100393.66;5039571;27;98414;-80
2021/01/19 11:38:01;;;;;;;;;;;;;;;6.86;60.96;100380.13;5040863;27;97091;-81
2021/01/19 11:40:27;;;;;;;;;;;;;;;7.03;60.54;100390.19;5046699;27;99642;-81
2021/01/19 11:42:54;;;;;;;;;;;;;;;7.34;59.81;100364.81;5041944;27;98793;-81
2021/01/19 11:45:20;;;;;;;;;;;;;;;7.70;58.44;100359.38;5041536;27;96931;-82
2021/01/19 11:47:46;;;;;;;;;;;;;;;7.36;58.90;100349.84;5043280;27;97410;-80
2021/01/19 11:50:13;;;;;;;;;;;;;;;7.59;58.46;100347.41;5039473;27;99616;-81
2021/01/19 11:52:39;;;;;;;;;;;;;;;7.35;58.91;100348.09;5039591;27;99553;-82
2021/01/19 11:55:11;;;;;;;;;;;;;;;7.35;58.39;100342.03;5036310;27;96911;-82
2021/01/19 11:57:37;;;;;;;;;;;;;;;7.22;58.23;100333.59;5038404;27;97443;-82
2021/01/19 12:00:05;;;;;;;;;;;;;;;7.08;58.50;100323.50;5036038;27;98607;-81
2021/01/19 12:02:31;;;;;;;;;;;;;;;6.86;58.88;100321.50;5036565;27;97435;-81
2021/01/19 12:04:57;;;;;;;;;;;;;;;6.71;59.33;100320.13;5040054;27;98879;-81
2021/01/19 12:07:23;;;;;;;;;;;;;;;6.79;58.90;100305.03;5038744;27;97469;-81
2021/01/19 12:09:49;;;;;;;;;;;;;;;6.53;59.37;100308.34;5039780;27;99021;-81
2021/01/19 12:12:15;;;;;;;;;;;;;;;6.73;59.32;100300.81;5039558;27;98435;-81
2021/01/19 12:14:41;;;;;;;;;;;;;;;6.76;58.53;100295.47;5038675;27;99051;-81
2021/01/19 12:17:07;;;;;;;;;;;;;;;6.77;58.72;100270.06;5038714;27;96881;-80
2021/01/19 12:19:33;;;;;;;;;;;;;;;6.74;59.08;100268.41;5035570;27;98792;-80
2021/01/19 12:21:59;;;;;;;;;;;;;;;6.70;58.53;100261.50;5041597;27;100749;-80
2021/01/19 12:24:26;;;;;;;;;;;;;;;6.76;58.95;100257.88;5034039;27;98683;-80
2021/01/19 12:26:53;;;;;;;;;;;;;;;6.47;58.82;100250.78;5037085;27;97924;-80
2021/01/19 12:29:20;;;;;;;;;;;;;;;6.59;59.21;100254.81;5041574;27;98876;-80
2021/01/19 12:31:46;;;;;;;;;;;;;;;6.84;58.35;100247.13;5044554;27;98084;-81
2021/01/19 12:34:13;;;;;;;;;;;;;;;6.85;58.37;100247.09;5055124;27;97439;-82
2021/01/19 12:36:39;;;;;;;;;;;;;;;6.86;58.50;100238.31;5052808;27;97192;-81
2021/01/19 12:39:05;;;;;;;;;;;;;;;6.51;58.83;100233.16;5054131;27;98220;-82
2021/01/19 12:41:33;;;;;;;;;;;;;;;6.31;59.94;100226.69;5048128;27;99233;-81
2021/01/19 12:43:59;;;;;;;;;;;;;;;6.95;58.65;100234.56;5045692;27;96948;-82
2021/01/19 12:46:25;;;;;;;;;;;;;;;6.52;59.30;100227.88;5042457;27;96927;-83
2021/01/19 12:48:52;;;;;;;;;;;;;;;6.65;58.81;100225.78;5040493;27;99152;-83